createdAt,value
2022-12-18T00:00:06.868Z,-5.26
2022-12-18T00:03:02.144Z,-5.27
2022-12-18T00:05:30.595Z,-5.27
2022-12-18T00:07:58.905Z,-5.26
2022-12-18T00:10:29.113Z,-5.22
2022-12-18T00:12:57.264Z,-5.23
2022-12-18T00:15:25.954Z,-5.26
2022-12-18T00:17:54.420Z,-5.28
2022-12-18T00:20:26.659Z,-5.29
2022-12-18T00:22:55.341Z,-5.28
2022-12-18T00:25:24.125Z,-5.28
2022-12-18T00:27:52.472Z,-5.26
2022-12-18T00:30:20.780Z,-5.24
2022-12-18T00:32:48.880Z,-5.21
2022-12-18T00:35:17.003Z,-5.18
2022-12-18T00:37:45.334Z,-5.15
2022-12-18T00:40:13.762Z,-5.12
2022-12-18T00:42:56.848Z,-5.11
2022-12-18T00:45:30.256Z,-5.13
2022-12-18T00:47:59.015Z,-5.16
2022-12-18T00:50:27.699Z,-5.17
2022-12-18T00:52:55.841Z,-5.18
2022-12-18T00:55:24.236Z,-5.19
2022-12-18T00:57:53.480Z,-5.17
2022-12-18T01:00:21.884Z,-5.15
2022-12-18T01:02:50.744Z,-5.14
2022-12-18T01:05:19.758Z,-5.13
2022-12-18T01:07:47.931Z,-5.13
2022-12-18T01:10:16.106Z,-5.11
2022-12-18T01:12:44.500Z,-5.13
2022-12-18T01:15:14.419Z,-5.14
2022-12-18T01:17:43.518Z,-5.17
2022-12-18T01:20:13.319Z,-5.20
2022-12-18T01:22:41.379Z,-5.24
2022-12-18T01:25:10.594Z,-5.26
2022-12-18T01:27:38.772Z,-5.24
2022-12-18T01:30:07.508Z,-5.22
2022-12-18T01:32:35.709Z,-5.22
2022-12-18T01:35:04.561Z,-5.21
2022-12-18T01:37:32.693Z,-5.19
2022-12-18T01:40:00.771Z,-5.18
2022-12-18T01:42:29.366Z,-5.19
2022-12-18T01:45:12.851Z,-5.24
2022-12-18T01:48:01.916Z,-5.25
2022-12-18T01:50:44.277Z,-5.27
2022-12-18T01:53:20.009Z,-5.29
2022-12-18T01:55:52.911Z,-5.31
2022-12-18T01:58:31.252Z,-5.36
2022-12-18T02:05:53.595Z,-5.35
2022-12-18T02:08:28.322Z,-5.35
2022-12-18T02:11:24.492Z,-5.35
2022-12-18T02:14:11.969Z,-5.34
2022-12-18T02:16:53.874Z,-5.32
2022-12-18T02:19:40.748Z,-5.30
2022-12-18T02:22:09.086Z,-5.29
2022-12-18T02:24:59.790Z,-5.31
2022-12-18T02:27:30.917Z,-5.32
2022-12-18T02:30:02.372Z,-5.35
2022-12-18T02:32:35.503Z,-5.39
2022-12-18T02:35:07.073Z,-5.44
2022-12-18T02:37:37.632Z,-5.46
2022-12-18T02:40:08.862Z,-5.48
2022-12-18T02:42:38.125Z,-5.46
2022-12-18T02:45:08.280Z,-5.44
2022-12-18T02:47:40.139Z,-5.42
2022-12-18T02:50:32.818Z,-5.41
2022-12-18T02:53:45.385Z,-5.37
2022-12-18T02:56:44.697Z,-5.37
2022-12-18T02:59:19.885Z,-5.37
2022-12-18T03:01:54.864Z,-5.38
2022-12-18T03:04:32.230Z,-5.40
2022-12-18T03:07:04.459Z,-5.41
2022-12-18T03:09:37.577Z,-5.42
2022-12-18T03:12:23.949Z,-5.46
2022-12-18T03:14:59.743Z,-5.52
2022-12-18T03:17:31.503Z,-5.53
2022-12-18T03:20:06.975Z,-5.54
2022-12-18T03:22:38.485Z,-5.54
2022-12-18T03:25:11.198Z,-5.52
2022-12-18T03:27:46.172Z,-5.49
2022-12-18T03:30:18.891Z,-5.47
2022-12-18T03:33:00.238Z,-5.44
2022-12-18T03:35:34.475Z,-5.45
2022-12-18T03:38:03.033Z,-5.45
2022-12-18T03:40:46.587Z,-5.49
2022-12-18T03:43:53.819Z,-5.52
2022-12-18T03:46:41.750Z,-5.58
2022-12-18T03:49:26.869Z,-5.61
2022-12-18T03:52:05.084Z,-5.62
2022-12-18T03:54:36.470Z,-5.58
2022-12-18T03:57:18.169Z,-5.56
2022-12-18T03:59:49.489Z,-5.53
2022-12-18T04:02:19.792Z,-5.49
2022-12-18T04:04:50.657Z,-5.47
2022-12-18T04:07:20.154Z,-5.50
2022-12-18T04:09:50.671Z,-5.55
2022-12-18T04:12:19.361Z,-5.60
2022-12-18T04:14:49.501Z,-5.65
2022-12-18T04:17:19.332Z,-5.70
2022-12-18T04:19:48.634Z,-5.69
2022-12-18T04:22:17.577Z,-5.68
2022-12-18T04:24:48.015Z,-5.68
2022-12-18T04:27:23.246Z,-5.70
2022-12-18T04:29:51.957Z,-5.69
2022-12-18T04:32:20.205Z,-5.67
2022-12-18T04:34:49.109Z,-5.64
2022-12-18T04:37:17.347Z,-5.60
2022-12-18T04:39:46.114Z,-5.61
2022-12-18T04:42:23.032Z,-5.64
2022-12-18T04:44:51.127Z,-5.64
2022-12-18T04:47:19.409Z,-5.66
2022-12-18T04:49:48.019Z,-5.67
2022-12-18T04:52:16.038Z,-5.72
2022-12-18T04:54:44.181Z,-5.71
2022-12-18T04:57:12.889Z,-5.70
2022-12-18T04:59:42.363Z,-5.70
2022-12-18T05:02:10.637Z,-5.67
2022-12-18T05:04:39.994Z,-5.67
2022-12-18T05:07:08.071Z,-5.69
2022-12-18T05:09:36.459Z,-5.70
2022-12-18T05:12:05.040Z,-5.69
2022-12-18T05:14:33.170Z,-5.69
2022-12-18T05:17:01.463Z,-5.70
2022-12-18T05:19:30.407Z,-5.72
2022-12-18T05:21:58.762Z,-5.74
2022-12-18T05:24:27.101Z,-5.73
2022-12-18T05:26:56.021Z,-5.71
2022-12-18T05:29:24.199Z,-5.68
2022-12-18T05:31:52.360Z,-5.69
2022-12-18T05:34:21.233Z,-5.67
2022-12-18T05:36:49.337Z,-5.66
2022-12-18T05:39:17.486Z,-5.66
2022-12-18T05:41:45.889Z,-5.65
2022-12-18T05:44:14.969Z,-5.67
2022-12-18T05:46:43.146Z,-5.70
2022-12-18T05:49:11.463Z,-5.72
2022-12-18T05:51:39.597Z,-5.74
2022-12-18T05:54:08.524Z,-5.74
2022-12-18T05:56:36.638Z,-5.76
2022-12-18T05:59:04.744Z,-5.80
2022-12-18T06:01:32.866Z,-5.82
2022-12-18T06:04:01.883Z,-5.84
2022-12-18T06:06:30.101Z,-5.83
2022-12-18T06:08:58.607Z,-5.82
2022-12-18T06:11:28.205Z,-5.82
2022-12-18T06:13:59.583Z,-5.84
2022-12-18T06:16:30.101Z,-5.89
2022-12-18T06:19:04.158Z,-5.94
2022-12-18T06:21:33.279Z,-5.98
2022-12-18T06:24:02.066Z,-6.04
2022-12-18T06:26:30.170Z,-6.04
2022-12-18T06:28:58.720Z,-6.04
2022-12-18T06:31:27.217Z,-6.04
2022-12-18T06:33:55.380Z,-6.07
2022-12-18T06:36:24.260Z,-6.05
2022-12-18T06:38:52.427Z,-6.06
2022-12-18T06:41:22.147Z,-6.07
2022-12-18T06:43:50.737Z,-6.05
2022-12-18T06:46:18.972Z,-6.02
2022-12-18T06:48:51.703Z,-6.00
2022-12-18T06:51:21.780Z,-5.97
2022-12-18T06:53:49.910Z,-5.93
2022-12-18T06:56:18.473Z,-5.85
2022-12-18T06:58:46.737Z,-5.84
2022-12-18T07:01:15.353Z,-5.84
2022-12-18T07:03:44.811Z,-5.83
2022-12-18T07:06:16.059Z,-5.83
2022-12-18T07:08:44.950Z,-5.82
2022-12-18T07:11:13.255Z,-5.83
2022-12-18T07:13:42.108Z,-5.82
2022-12-18T07:16:18.375Z,-5.82
2022-12-18T07:18:50.921Z,-5.80
2022-12-18T07:21:20.774Z,-5.77
2022-12-18T07:23:49.543Z,-5.77
2022-12-18T07:26:20.664Z,-5.84
2022-12-18T07:28:49.670Z,-5.79
2022-12-18T07:31:21.594Z,-5.73
2022-12-18T07:33:51.788Z,-5.70
2022-12-18T07:36:20.726Z,-5.67
2022-12-18T07:38:50.184Z,-5.62
2022-12-18T07:41:20.691Z,-5.56
2022-12-18T07:43:49.126Z,-5.57
2022-12-18T07:46:17.812Z,-5.61
2022-12-18T07:48:49.968Z,-5.65
2022-12-18T07:51:19.518Z,-5.67
2022-12-18T07:53:50.323Z,-5.66
2022-12-18T07:56:30.324Z,-5.59
2022-12-18T07:59:00.620Z,-5.54
2022-12-18T08:01:31.799Z,-5.55
2022-12-18T08:04:00.116Z,-5.49
2022-12-18T08:06:28.539Z,-5.40
2022-12-18T08:08:56.941Z,-5.31
2022-12-18T08:11:27.940Z,-5.28
2022-12-18T08:13:56.939Z,-5.19
2022-12-18T08:16:25.459Z,-5.09
2022-12-18T08:18:54.496Z,-5.08
2022-12-18T08:21:28.430Z,-5.06
2022-12-18T08:23:59.011Z,-5.03
2022-12-18T08:26:30.353Z,-5.04
2022-12-18T08:29:00.748Z,-5.14
2022-12-18T08:31:31.017Z,-5.10
2022-12-18T08:34:00.100Z,-5.01
2022-12-18T08:36:28.182Z,-4.91
2022-12-18T08:38:57.477Z,-4.85
2022-12-18T08:41:26.068Z,-4.87
2022-12-18T08:44:12.425Z,-4.98
2022-12-18T08:46:43.142Z,-5.04
2022-12-18T08:49:12.401Z,-5.03
2022-12-18T08:51:40.891Z,-4.93
2022-12-18T08:54:12.648Z,-4.88
2022-12-18T08:56:40.735Z,-4.93
2022-12-18T08:59:13.156Z,-4.91
2022-12-18T09:01:46.719Z,-4.90
2022-12-18T09:04:18.086Z,-4.87
2022-12-18T09:06:46.271Z,-4.82
2022-12-18T09:09:14.337Z,-4.77
2022-12-18T09:11:42.656Z,-4.81
2022-12-18T09:14:11.510Z,-4.86
2022-12-18T09:16:39.743Z,-4.90
2022-12-18T09:19:07.958Z,-4.91
2022-12-18T09:21:37.138Z,-4.88
2022-12-18T09:24:08.622Z,-4.75
2022-12-18T09:26:38.104Z,-4.69
2022-12-18T09:29:08.371Z,-4.75
2022-12-18T09:31:37.672Z,-4.71
2022-12-18T09:34:07.294Z,-4.64
2022-12-18T09:36:35.754Z,-4.62
2022-12-18T09:39:08.240Z,-4.59
2022-12-18T09:41:45.839Z,-4.52
2022-12-18T09:44:23.561Z,-4.39
2022-12-18T09:47:03.642Z,-4.38
2022-12-18T09:49:35.681Z,-4.42
2022-12-18T09:52:21.260Z,-4.38
2022-12-18T09:54:56.085Z,-4.35
2022-12-18T09:57:26.728Z,-4.32
2022-12-18T10:00:00.142Z,-4.25
2022-12-18T10:02:32.726Z,-4.23
2022-12-18T10:05:16.706Z,-4.19
2022-12-18T10:08:03.763Z,-4.21
2022-12-18T10:10:41.211Z,-4.18
2022-12-18T10:13:19.097Z,-4.18
2022-12-18T10:15:55.705Z,-4.14
2022-12-18T10:18:51.720Z,-4.14
2022-12-18T10:21:57.577Z,-4.08
2022-12-18T10:24:40.490Z,-3.96
2022-12-18T10:27:28.232Z,-3.91
2022-12-18T10:29:57.116Z,-3.90
2022-12-18T10:32:31.507Z,-3.90
2022-12-18T10:35:00.885Z,-3.90
2022-12-18T10:37:30.945Z,-3.90
2022-12-18T10:40:18.279Z,-3.82
2022-12-18T10:43:14.520Z,-3.74
2022-12-18T10:45:58.507Z,-3.75
2022-12-18T10:48:27.937Z,-3.78
2022-12-18T10:51:12.620Z,-3.91
2022-12-18T10:53:44.024Z,-4.00
2022-12-18T10:56:13.286Z,-4.01
2022-12-18T10:58:41.820Z,-4.01
2022-12-18T11:01:16.862Z,-3.90
2022-12-18T11:03:46.405Z,-3.79
2022-12-18T11:06:21.307Z,-3.85
2022-12-18T11:09:13.169Z,-3.90
2022-12-18T11:11:50.352Z,-3.83
2022-12-18T11:14:23.807Z,-3.73
2022-12-18T11:19:42.441Z,-3.67
2022-12-18T11:22:33.844Z,-3.65
2022-12-18T11:27:55.981Z,-3.57
2022-12-18T11:30:36.459Z,-3.65
2022-12-18T11:33:18.867Z,-3.66
2022-12-18T11:35:53.071Z,-3.65
2022-12-18T11:38:21.587Z,-3.63
2022-12-18T11:41:18.632Z,-3.64
2022-12-18T11:43:51.042Z,-3.59
2022-12-18T11:46:32.100Z,-3.55
2022-12-18T11:49:04.797Z,-3.55
2022-12-18T11:51:47.653Z,-3.61
2022-12-18T11:54:17.370Z,-3.57
2022-12-18T11:56:52.041Z,-3.49
2022-12-18T11:59:27.879Z,-3.43
2022-12-18T12:02:01.742Z,-3.47
2022-12-18T12:04:52.871Z,-3.49
2022-12-18T12:07:42.457Z,-3.46
2022-12-18T12:10:47.577Z,-3.49
2022-12-18T12:13:40.875Z,-3.64
2022-12-18T12:16:28.322Z,-3.70
2022-12-18T12:19:29.824Z,-3.65
2022-12-18T12:22:04.040Z,-3.67
2022-12-18T12:24:57.141Z,-3.61
2022-12-18T12:27:59.242Z,-3.51
2022-12-18T12:31:03.528Z,-3.53
2022-12-18T12:34:11.334Z,-3.50
2022-12-18T12:36:52.484Z,-3.49
2022-12-18T12:39:23.641Z,-3.50
2022-12-18T12:42:11.004Z,-3.53
2022-12-18T12:44:55.668Z,-3.58
2022-12-18T12:47:30.831Z,-3.67
2022-12-18T12:50:02.972Z,-3.68
2022-12-18T12:52:45.330Z,-3.75
2022-12-18T12:55:22.311Z,-3.82
2022-12-18T12:58:20.874Z,-3.90
2022-12-18T13:01:23.540Z,-3.92
2022-12-18T13:04:04.619Z,-4.05
2022-12-18T13:07:06.612Z,-4.09
2022-12-18T13:10:17.705Z,-4.05
2022-12-18T13:12:58.061Z,-4.02
2022-12-18T13:15:39.968Z,-4.05
2022-12-18T13:18:11.664Z,-4.06
2022-12-18T13:20:45.612Z,-4.22
2022-12-18T13:23:28.829Z,-4.28
2022-12-18T13:26:10.819Z,-4.39
2022-12-18T13:28:48.234Z,-4.47
2022-12-18T13:31:42.658Z,-4.49
2022-12-18T13:34:26.300Z,-4.47
2022-12-18T13:36:58.426Z,-4.47
2022-12-18T13:42:54.616Z,-4.50
2022-12-18T13:45:44.338Z,-4.49
2022-12-18T13:48:37.159Z,-4.53
2022-12-18T13:51:08.811Z,-4.64
2022-12-18T13:53:43.659Z,-4.72
2022-12-18T13:56:22.945Z,-4.76
2022-12-18T13:59:19.453Z,-4.82
2022-12-18T14:02:02.525Z,-4.94
2022-12-18T14:07:22.201Z,-5.22
2022-12-18T14:10:01.902Z,-5.28
2022-12-18T14:12:55.020Z,-5.29
2022-12-18T14:15:26.253Z,-5.32
2022-12-18T14:18:00.856Z,-5.35
2022-12-18T14:20:32.057Z,-5.33
2022-12-18T14:23:01.457Z,-5.36
2022-12-18T14:25:31.847Z,-5.37
2022-12-18T14:28:13.425Z,-5.34
2022-12-18T14:30:42.929Z,-5.31
2022-12-18T14:33:16.487Z,-5.35
2022-12-18T14:36:04.503Z,-5.50
2022-12-18T14:38:40.302Z,-5.66
2022-12-18T14:41:12.674Z,-5.79
2022-12-18T14:43:43.532Z,-5.82
2022-12-18T14:46:36.432Z,-5.87
2022-12-18T14:49:30.505Z,-5.95
2022-12-18T14:52:05.461Z,-5.97
2022-12-18T14:54:38.637Z,-5.99
2022-12-18T14:57:18.818Z,-5.98
2022-12-18T14:59:47.016Z,-5.95
2022-12-18T15:02:27.837Z,-5.93
2022-12-18T15:05:14.838Z,-6.00
2022-12-18T15:07:47.378Z,-6.06
2022-12-18T15:10:21.359Z,-6.05
2022-12-18T15:12:51.491Z,-6.09
2022-12-18T15:15:38.115Z,-6.12
2022-12-18T15:18:14.024Z,-6.24
2022-12-18T15:20:47.429Z,-6.31
2022-12-18T15:23:20.547Z,-6.38
2022-12-18T15:25:55.715Z,-6.44
2022-12-18T15:28:38.443Z,-6.47
2022-12-18T15:31:12.300Z,-6.44
2022-12-18T15:34:00.611Z,-6.37
2022-12-18T15:36:31.293Z,-6.30
2022-12-18T15:39:05.449Z,-6.32
2022-12-18T15:41:37.129Z,-6.35
2022-12-18T15:44:23.869Z,-6.39
2022-12-18T15:46:52.411Z,-6.41
2022-12-18T15:49:21.328Z,-6.45
2022-12-18T15:51:55.232Z,-6.49
2022-12-18T15:54:43.667Z,-6.50
2022-12-18T15:57:25.371Z,-6.56
2022-12-18T15:59:57.461Z,-6.60
2022-12-18T16:02:26.124Z,-6.61
2022-12-18T16:04:55.249Z,-6.67
2022-12-18T16:07:25.240Z,-6.69
2022-12-18T16:09:54.006Z,-6.66
2022-12-18T16:12:25.458Z,-6.63
2022-12-18T16:14:53.684Z,-6.57
2022-12-18T16:17:22.280Z,-6.49
2022-12-18T16:19:50.640Z,-6.44
2022-12-18T16:22:24.664Z,-6.44
2022-12-18T16:24:54.638Z,-6.47
2022-12-18T16:27:23.925Z,-6.52
2022-12-18T16:29:52.508Z,-6.55
2022-12-18T16:32:23.399Z,-6.62
2022-12-18T16:34:51.913Z,-6.68
2022-12-18T16:37:20.114Z,-6.67
2022-12-18T16:39:48.445Z,-6.65
2022-12-18T16:42:20.112Z,-6.65
2022-12-18T16:44:50.709Z,-6.65
2022-12-18T16:47:19.848Z,-6.59
2022-12-18T16:49:52.021Z,-6.54
2022-12-18T16:52:22.053Z,-6.48
2022-12-18T16:54:50.403Z,-6.52
2022-12-18T16:57:23.541Z,-6.55
2022-12-18T16:59:53.961Z,-6.59
2022-12-18T17:02:24.834Z,-6.62
2022-12-18T17:04:56.236Z,-6.68
2022-12-18T17:07:25.947Z,-6.73
2022-12-18T17:09:54.671Z,-6.74
2022-12-18T17:12:23.648Z,-6.73
2022-12-18T17:14:52.719Z,-6.73
2022-12-18T17:17:22.698Z,-6.71
2022-12-18T17:19:52.686Z,-6.73
2022-12-18T17:22:23.511Z,-6.73
2022-12-18T17:24:51.942Z,-6.71
2022-12-18T17:27:20.154Z,-6.79
2022-12-18T17:29:49.276Z,-6.87
2022-12-18T17:32:18.261Z,-6.96
2022-12-18T17:34:47.124Z,-7.00
2022-12-18T17:37:15.976Z,-7.00
2022-12-18T17:39:44.187Z,-6.98
2022-12-18T17:42:15.520Z,-7.00
2022-12-18T17:44:44.876Z,-7.02
2022-12-18T17:47:14.013Z,-7.06
2022-12-18T17:49:42.136Z,-7.06
2022-12-18T17:52:11.088Z,-7.06
2022-12-18T17:54:41.966Z,-7.02
2022-12-18T17:57:10.437Z,-6.99
2022-12-18T17:59:39.010Z,-7.00
2022-12-18T18:02:07.634Z,-7.07
2022-12-18T18:04:36.759Z,-7.14
2022-12-18T18:07:05.320Z,-7.16
2022-12-18T18:09:33.692Z,-7.13
2022-12-18T18:12:21.244Z,-7.09
2022-12-18T18:14:49.543Z,-7.03
2022-12-18T18:17:17.778Z,-7.05
2022-12-18T18:19:49.507Z,-7.09
2022-12-18T18:22:20.082Z,-7.07
2022-12-18T18:24:48.599Z,-7.07
2022-12-18T18:27:16.898Z,-7.06
2022-12-18T18:29:45.259Z,-7.06
2022-12-18T18:32:13.562Z,-7.08
2022-12-18T18:34:41.953Z,-7.10
2022-12-18T18:37:11.206Z,-7.08
2022-12-18T18:39:39.586Z,-7.09
2022-12-18T18:42:07.937Z,-7.14
2022-12-18T18:44:36.973Z,-7.19
2022-12-18T18:47:07.427Z,-7.21
2022-12-18T18:49:38.334Z,-7.20
2022-12-18T18:52:07.609Z,-7.17
2022-12-18T18:54:35.804Z,-7.14
2022-12-18T18:57:20.471Z,-7.16
2022-12-18T18:59:49.223Z,-7.17
2022-12-18T19:02:18.046Z,-7.15
2022-12-18T19:04:47.147Z,-7.15
2022-12-18T19:07:24.054Z,-7.19
2022-12-18T19:10:03.960Z,-7.28
2022-12-18T19:12:53.327Z,-7.35
2022-12-18T19:15:23.357Z,-7.40
2022-12-18T19:17:51.799Z,-7.38
2022-12-18T19:20:20.363Z,-7.31
2022-12-18T19:22:54.642Z,-7.26
2022-12-18T19:25:29.961Z,-7.29
2022-12-18T19:28:19.292Z,-7.31
2022-12-18T19:30:59.395Z,-7.32
2022-12-18T19:33:45.215Z,-7.30
2022-12-18T19:36:22.342Z,-7.27
2022-12-18T19:38:52.006Z,-7.23
2022-12-18T19:41:21.277Z,-7.23
2022-12-18T19:43:51.355Z,-7.18
2022-12-18T19:46:22.755Z,-7.19
2022-12-18T19:48:51.301Z,-7.20
2022-12-18T19:51:27.470Z,-7.20
2022-12-18T19:53:59.351Z,-7.14
2022-12-18T19:56:31.969Z,-7.11
2022-12-18T19:59:00.377Z,-7.11
2022-12-18T20:01:32.056Z,-7.07
2022-12-18T20:04:01.018Z,-7.07
2022-12-18T20:06:32.566Z,-7.10
2022-12-18T20:09:04.716Z,-7.20
2022-12-18T20:11:35.358Z,-7.28
2022-12-18T20:14:11.247Z,-7.35
2022-12-18T20:16:40.514Z,-7.43
2022-12-18T20:19:10.682Z,-7.49
2022-12-18T20:21:39.141Z,-7.53
2022-12-18T20:24:08.418Z,-7.52
2022-12-18T20:26:36.751Z,-7.47
2022-12-18T20:29:05.272Z,-7.41
2022-12-18T20:31:33.508Z,-7.39
2022-12-18T20:34:03.568Z,-7.41
2022-12-18T20:36:32.878Z,-7.41
2022-12-18T20:39:05.420Z,-7.42
2022-12-18T20:41:38.549Z,-7.45
2022-12-18T20:44:22.489Z,-7.47
2022-12-18T20:46:54.809Z,-7.50
2022-12-18T20:49:23.802Z,-7.53
2022-12-18T20:51:53.964Z,-7.53
2022-12-18T20:54:23.939Z,-7.54
2022-12-18T20:56:52.348Z,-7.55
2022-12-18T20:59:21.008Z,-7.55
2022-12-18T21:01:50.209Z,-7.50
2022-12-18T21:04:19.260Z,-7.47
2022-12-18T21:07:00.476Z,-7.44
2022-12-18T21:09:36.945Z,-7.38
2022-12-18T21:12:35.118Z,-7.38
2022-12-18T21:15:10.184Z,-7.44
2022-12-18T21:17:45.169Z,-7.49
2022-12-18T21:20:17.970Z,-7.51
2022-12-18T21:22:49.369Z,-7.52
2022-12-18T21:25:18.004Z,-7.52
2022-12-18T21:27:46.129Z,-7.53
2022-12-18T21:30:15.319Z,-7.52
2022-12-18T21:32:43.936Z,-7.52
2022-12-18T21:35:12.052Z,-7.51
2022-12-18T21:37:40.468Z,-7.50
2022-12-18T21:40:09.424Z,-7.48
2022-12-18T21:42:56.114Z,-7.45
2022-12-18T21:45:24.460Z,-7.39
2022-12-18T21:47:52.563Z,-7.31
2022-12-18T21:50:20.929Z,-7.29
2022-12-18T21:52:49.196Z,-7.28
2022-12-18T21:55:17.315Z,-7.24
2022-12-18T21:57:45.651Z,-7.21
2022-12-18T22:00:19.002Z,-7.17
2022-12-18T22:03:12.698Z,-7.11
2022-12-18T22:05:38.230Z,-7.07
2022-12-18T22:08:07.088Z,-7.03
2022-12-18T22:10:36.144Z,-7.06
2022-12-18T22:13:06.077Z,-7.07
2022-12-18T22:15:34.597Z,-7.10
2022-12-18T22:18:02.722Z,-7.10
2022-12-18T22:20:31.694Z,-7.14
2022-12-18T22:23:02.869Z,-7.15
2022-12-18T22:25:34.877Z,-7.16
2022-12-18T22:28:22.806Z,-7.14
2022-12-18T22:30:56.365Z,-7.14
2022-12-18T22:33:28.710Z,-7.14
2022-12-18T22:35:57.100Z,-7.17
2022-12-18T22:38:27.547Z,-7.23
2022-12-18T22:40:55.682Z,-7.33
2022-12-18T22:43:24.088Z,-7.35
2022-12-18T22:45:55.971Z,-7.36
2022-12-18T22:48:24.321Z,-7.38
2022-12-18T22:50:54.804Z,-7.42
2022-12-18T22:53:28.032Z,-7.40
2022-12-18T22:56:02.664Z,-7.37
2022-12-18T22:58:31.045Z,-7.40
2022-12-18T23:00:59.313Z,-7.48
2022-12-18T23:03:27.690Z,-7.58
2022-12-18T23:06:05.954Z,-7.63
2022-12-18T23:08:35.436Z,-7.68
2022-12-18T23:11:04.850Z,-7.71
2022-12-18T23:13:33.927Z,-7.71
2022-12-18T23:16:08.883Z,-7.74
2022-12-18T23:18:37.635Z,-7.81
2022-12-18T23:21:12.826Z,-7.90
2022-12-18T23:23:42.508Z,-7.97
2022-12-18T23:26:16.444Z,-8.01
2022-12-18T23:28:44.768Z,-8.03
2022-12-18T23:31:15.696Z,-8.02
2022-12-18T23:33:46.624Z,-8.02
2022-12-18T23:36:15.875Z,-7.99
2022-12-18T23:38:49.424Z,-7.96
2022-12-18T23:41:20.083Z,-7.95
2022-12-18T23:43:48.632Z,-7.98
2022-12-18T23:46:23.441Z,-7.97
2022-12-18T23:48:52.475Z,-7.93
2022-12-18T23:51:26.041Z,-7.90
2022-12-18T23:53:56.217Z,-7.89
2022-12-18T23:56:25.322Z,-7.92
2022-12-18T23:58:53.955Z,-7.95
